Time;durP1;ratioP1;P1;durP2;ratioP2;P2;SDS_P1;SDS_P2;PMS_P1;PMS_P2;Temp;Humidity;BMP_temperature;BMP_pressure;BME280_temperature;BME280_humidity;BME280_pressure;Samples;Min_cycle;Max_cycle;Signal;HPM_P1;HPM_P2
2023/11/07 00:00:23;;;;;;;5.97;1.58;;;11.30;99.90;;;;;;5002391;28;20052;-69
2023/11/07 00:02:52;;;;;;;5.50;1.67;;;11.30;99.90;;;;;;5006398;28;20033;-69
2023/11/07 00:05:21;;;;;;;10.30;1.38;;;11.40;99.90;;;;;;5008449;28;20076;-69
2023/11/07 00:07:47;;;;;;;10.98;1.58;;;11.30;99.90;;;;;;5006339;28;20030;-69
2023/11/07 00:10:13;;;;;;;6.03;1.30;;;11.30;99.90;;;;;;5005541;28;20045;-69
2023/11/07 00:12:41;;;;;;;8.38;1.77;;;11.30;99.90;;;;;;5004298;28;20052;-69
2023/11/07 00:15:07;;;;;;;5.05;1.30;;;11.30;99.90;;;;;;5006732;28;20088;-68
2023/11/07 00:17:33;;;;;;;6.53;2.20;;;11.30;99.90;;;;;;5008034;28;20108;-69
2023/11/07 00:20:00;;;;;;;7.75;1.23;;;11.30;99.90;;;;;;5004910;28;20101;-69
2023/11/07 00:22:26;;;;;;;;;;;11.40;99.90;;;;;;5004895;28;20038;-68
2023/11/07 00:24:53;;;;;;;3.70;1.08;;;11.30;99.90;;;;;;5005352;28;19921;-69
2023/11/07 00:27:19;;;;;;;8.35;1.33;;;11.30;99.90;;;;;;5005690;28;20491;-69
2023/11/07 00:29:47;;;;;;;9.60;1.30;;;11.30;99.90;;;;;;5006829;28;20044;-69
2023/11/07 00:32:14;;;;;;;9.05;1.50;;;11.30;99.90;;;;;;5004302;28;20042;-69
2023/11/07 00:34:42;;;;;;;4.38;0.90;;;11.30;99.90;;;;;;5004485;28;20055;-69
2023/11/07 00:37:08;;;;;;;7.43;1.20;;;11.30;99.90;;;;;;5002962;28;20029;-69
2023/11/07 00:39:34;;;;;;;9.32;1.45;;;11.30;99.90;;;;;;5020222;28;20701;-69
2023/11/07 00:42:00;;;;;;;10.07;1.48;;;11.30;99.90;;;;;;5004026;28;20021;-69
2023/11/07 00:44:27;;;;;;;10.65;1.42;;;11.30;99.90;;;;;;5005259;28;20684;-69
2023/11/07 00:46:55;;;;;;;8.40;1.42;;;11.30;99.90;;;;;;5004304;28;20022;-69
2023/11/07 00:49:21;;;;;;;;;;;11.30;99.90;;;;;;5004207;28;20096;-69
2023/11/07 00:51:51;;;;;;;6.03;1.45;;;11.30;99.90;;;;;;5005741;28;20367;-69
2023/11/07 00:54:19;;;;;;;7.82;1.08;;;11.30;99.90;;;;;;5003598;28;20395;-69
2023/11/07 00:56:45;;;;;;;;;;;11.30;99.90;;;;;;5004858;28;20052;-69
2023/11/07 00:59:12;;;;;;;6.85;1.30;;;11.30;99.90;;;;;;5002246;28;19956;-69
2023/11/07 01:01:40;;;;;;;4.22;1.15;;;11.30;99.90;;;;;;5006529;28;20053;-69
2023/11/07 01:04:06;;;;;;;;;;;11.30;99.90;;;;;;5005431;28;20104;-69
2023/11/07 01:06:32;;;;;;;5.93;1.33;;;11.30;99.90;;;;;;5007293;28;19905;-69
2023/11/07 01:08:57;;;;;;;4.72;1.25;;;11.30;99.90;;;;;;5006549;28;20029;-69
2023/11/07 01:11:28;;;;;;;4.07;1.17;;;11.30;99.90;;;;;;5006881;28;20038;-69
2023/11/07 01:13:57;;;;;;;5.93;1.08;;;11.30;99.90;;;;;;5004464;28;20034;-69
2023/11/07 01:16:25;;;;;;;6.65;0.98;;;11.30;99.90;;;;;;5005466;28;20049;-69
2023/11/07 01:18:53;;;;;;;7.00;1.13;;;11.40;99.90;;;;;;5004772;28;20026;-69
2023/11/07 01:21:18;;;;;;;5.55;1.23;;;11.40;99.90;;;;;;5003000;28;20164;-69
2023/11/07 01:23:46;;;;;;;9.75;1.10;;;11.40;99.90;;;;;;5005052;28;20650;-69
2023/11/07 01:26:14;;;;;;;7.28;1.35;;;11.40;99.90;;;;;;5003879;28;20029;-69
2023/11/07 01:28:44;;;;;;;;;;;11.50;99.90;;;;;;5006546;28;20123;-69
2023/11/07 01:31:10;;;;;;;5.75;1.13;;;11.40;99.90;;;;;;5003408;28;19987;-69
2023/11/07 01:33:36;;;;;;;4.28;1.05;;;11.40;99.90;;;;;;5004898;28;20509;-69
2023/11/07 01:36:01;;;;;;;6.45;1.10;;;11.40;99.90;;;;;;5004423;28;20450;-69
2023/11/07 01:38:27;;;;;;;7.60;1.38;;;11.30;99.90;;;;;;5003803;28;20018;-69
2023/11/07 01:40:58;;;;;;;12.32;1.50;;;11.40;99.90;;;;;;5012061;28;20018;-69
2023/11/07 01:43:27;;;;;;;6.43;1.63;;;11.40;99.90;;;;;;5010699;28;20388;-69
2023/11/07 01:45:54;;;;;;;8.02;1.20;;;11.40;99.90;;;;;;5007347;28;20506;-69
2023/11/07 01:48:25;;;;;;;6.68;1.40;;;11.40;99.90;;;;;;5008525;28;20388;-69
2023/11/07 01:50:51;;;;;;;3.03;1.08;;;11.40;99.90;;;;;;5007131;28;20065;-69
2023/11/07 01:53:20;;;;;;;6.70;1.17;;;11.30;99.90;;;;;;5009301;28;20074;-69
2023/11/07 01:55:48;;;;;;;4.25;1.02;;;11.40;99.90;;;;;;5006780;28;20372;-69
2023/11/07 01:58:14;;;;;;;;;;;11.40;99.90;;;;;;5007926;28;20585;-69
2023/11/07 02:00:44;;;;;;;5.43;1.15;;;11.40;99.90;;;;;;5007194;28;20020;-69
2023/11/07 02:03:09;;;;;;;4.93;1.55;;;11.30;99.90;;;;;;5007099;28;20042;-69
2023/11/07 02:05:35;;;;;;;6.55;1.25;;;11.30;99.90;;;;;;5007736;28;20040;-69
2023/11/07 02:08:01;;;;;;;6.68;1.35;;;11.40;99.90;;;;;;5011310;28;20065;-69
2023/11/07 02:10:27;;;;;;;6.25;0.90;;;11.40;99.90;;;;;;5009817;28;20026;-69
2023/11/07 02:12:53;;;;;;;6.47;1.13;;;11.40;99.90;;;;;;5011011;28;20042;-69
2023/11/07 02:15:31;;;;;;;5.85;0.98;;;11.40;99.90;;;;;;5005086;28;20092;-69
2023/11/07 02:17:57;;;;;;;4.55;1.23;;;11.40;99.90;;;;;;5007481;28;20026;-69
2023/11/07 02:20:23;;;;;;;3.42;1.00;;;11.40;99.90;;;;;;5008162;28;20026;-69
2023/11/07 02:22:54;;;;;;;4.25;1.17;;;11.40;99.90;;;;;;5007918;28;20133;-69
2023/11/07 02:25:24;;;;;;;4.80;1.05;;;11.40;99.90;;;;;;5004829;28;20068;-69
2023/11/07 02:27:52;;;;;;;4.15;1.20;;;11.40;99.90;;;;;;5006672;28;20030;-69
2023/11/07 02:30:17;;;;;;;;;;;11.40;99.90;;;;;;5005815;28;20030;-69
2023/11/07 02:32:43;;;;;;;3.63;1.10;;;11.50;99.90;;;;;;5007410;28;19921;-69
2023/11/07 02:35:13;;;;;;;4.55;1.02;;;11.50;99.90;;;;;;5009664;28;20388;-69
2023/11/07 02:37:39;;;;;;;6.15;1.10;;;11.50;99.90;;;;;;5008843;28;20411;-69
2023/11/07 02:40:06;;;;;;;4.70;1.00;;;11.50;99.90;;;;;;5008041;28;20053;-69
2023/11/07 02:42:33;;;;;;;4.75;1.23;;;11.50;99.90;;;;;;5007819;28;20197;-69
2023/11/07 02:44:58;;;;;;;5.25;1.10;;;11.50;99.90;;;;;;5008003;28;20036;-69
2023/11/07 02:47:25;;;;;;;3.35;1.25;;;11.60;99.90;;;;;;5006569;28;20113;-69
2023/11/07 02:49:51;;;;;;;3.67;0.82;;;11.50;99.90;;;;;;5004987;28;20030;-69
2023/11/07 02:52:20;;;;;;;4.05;1.08;;;11.50;99.90;;;;;;5009605;28;20037;-69
2023/11/07 02:54:46;;;;;;;4.75;1.20;;;11.50;99.90;;;;;;5009418;28;20027;-69
2023/11/07 02:57:12;;;;;;;4.07;1.20;;;11.50;99.90;;;;;;5008474;28;20582;-69
2023/11/07 02:59:39;;;;;;;8.77;1.55;;;11.60;99.90;;;;;;5008271;28;20022;-69
2023/11/07 03:02:04;;;;;;;3.97;1.30;;;11.50;99.90;;;;;;5007918;28;20022;-69
2023/11/07 03:04:30;;;;;;;6.38;1.20;;;11.50;99.90;;;;;;5009124;28;20033;-69
2023/11/07 03:06:55;;;;;;;4.57;1.20;;;11.60;99.90;;;;;;5007062;28;20026;-69
2023/11/07 03:09:24;;;;;;;6.50;1.52;;;11.50;99.90;;;;;;5009117;28;20079;-69
2023/11/07 03:11:50;;;;;;;;;;;11.60;99.90;;;;;;5006427;28;20022;-70
2023/11/07 03:14:15;;;;;;;5.38;1.08;;;11.60;99.90;;;;;;5009197;28;20403;-69
2023/11/07 03:16:43;;;;;;;6.65;1.20;;;11.50;99.90;;;;;;5007674;28;20122;-69
2023/11/07 03:19:09;;;;;;;5.18;0.95;;;11.50;99.90;;;;;;5006778;28;20041;-69
2023/11/07 03:21:37;;;;;;;7.40;1.08;;;11.50;99.90;;;;;;5006940;28;20030;-69
2023/11/07 03:24:08;;;;;;;5.28;0.85;;;11.70;99.90;;;;;;5005669;28;20428;-69
2023/11/07 03:26:34;;;;;;;5.70;0.98;;;11.60;99.90;;;;;;5004837;28;20053;-69
2023/11/07 03:29:00;;;;;;;6.88;1.10;;;11.60;99.90;;;;;;4997239;28;20026;-69
2023/11/07 03:31:26;;;;;;;4.40;0.80;;;11.60;99.90;;;;;;5036994;23;20400;-69
2023/11/07 03:33:51;;;;;;;9.65;1.00;;;11.50;99.90;;;;;;5006971;28;20036;-69
2023/11/07 03:36:17;;;;;;;9.77;1.63;;;11.60;99.90;;;;;;5009743;28;20607;-69
2023/11/07 03:38:45;;;;;;;6.65;1.00;;;11.60;99.90;;;;;;5007323;28;20110;-69
2023/11/07 03:41:11;;;;;;;;;;;11.50;99.90;;;;;;5013824;28;20022;-69
2023/11/07 03:43:39;;;;;;;5.45;1.00;;;11.60;99.90;;;;;;5006006;28;19909;-69
2023/11/07 03:46:06;;;;;;;5.75;0.85;;;11.60;99.90;;;;;;5014874;28;20029;-69
2023/11/07 03:48:32;;;;;;;4.15;0.88;;;11.60;99.90;;;;;;5007608;28;20028;-69
2023/11/07 03:50:57;;;;;;;10.00;1.30;;;11.60;99.90;;;;;;5008262;28;20026;-69
2023/11/07 03:53:23;;;;;;;2.28;0.82;;;11.50;99.90;;;;;;5007426;28;20034;-69
2023/11/07 03:55:50;;;;;;;2.95;0.68;;;11.50;99.90;;;;;;5007991;28;20048;-69
2023/11/07 03:58:16;;;;;;;6.72;1.17;;;11.50;99.90;;;;;;5008873;28;20030;-69
2023/11/07 04:00:42;;;;;;;13.15;1.00;;;11.50;99.90;;;;;;5007164;28;20101;-70
2023/11/07 04:03:10;;;;;;;7.22;1.30;;;11.50;99.90;;;;;;5011157;28;20029;-69
2023/11/07 04:05:35;;;;;;;2.92;0.75;;;11.50;99.90;;;;;;5007034;28;20369;-69
2023/11/07 04:08:01;;;;;;;5.50;0.93;;;11.50;99.90;;;;;;5010091;28;20037;-69
2023/11/07 04:10:27;;;;;;;5.93;1.08;;;11.50;99.90;;;;;;5007856;28;20471;-69
2023/11/07 04:12:55;;;;;;;7.53;1.20;;;11.50;99.90;;;;;;5008200;28;20061;-69
2023/11/07 04:15:22;;;;;;;8.02;1.10;;;11.60;99.90;;;;;;5007573;28;20030;-69
2023/11/07 04:17:49;;;;;;;2.88;0.82;;;11.50;99.90;;;;;;5011594;28;20046;-69
2023/11/07 04:20:16;;;;;;;5.57;1.00;;;11.50;99.90;;;;;;5005808;28;20459;-69
2023/11/07 04:22:43;;;;;;;3.10;0.93;;;11.50;99.90;;;;;;5010915;28;20025;-69
2023/11/07 04:25:09;;;;;;;3.55;0.98;;;11.50;99.90;;;;;;5010064;28;20054;-69
2023/11/07 04:27:35;;;;;;;4.55;0.95;;;11.50;99.90;;;;;;5010123;28;20742;-69
2023/11/07 04:30:05;;;;;;;7.90;1.63;;;11.40;99.90;;;;;;5008427;28;20030;-69
2023/11/07 04:32:34;;;;;;;6.95;2.33;;;11.40;99.90;;;;;;5005337;28;20034;-69
2023/11/07 04:34:59;;;;;;;5.30;2.00;;;11.40;99.90;;;;;;5007767;28;20050;-69
2023/11/07 04:37:25;;;;;;;6.00;2.40;;;11.50;99.90;;;;;;5006619;28;20060;-69
2023/11/07 04:39:51;;;;;;;7.57;1.90;;;11.40;99.90;;;;;;5009237;28;20671;-69
2023/11/07 04:42:18;;;;;;;4.47;1.40;;;11.40;99.90;;;;;;5008066;28;20034;-69
2023/11/07 04:44:45;;;;;;;4.72;1.33;;;11.40;99.90;;;;;;5009354;28;20018;-69
2023/11/07 04:47:16;;;;;;;3.67;1.10;;;11.40;99.90;;;;;;5005919;28;20715;-69
2023/11/07 04:49:44;;;;;;;5.40;1.05;;;11.40;99.90;;;;;;5005214;28;20022;-69
2023/11/07 04:52:12;;;;;;;4.70;1.23;;;11.30;99.90;;;;;;5002773;28;20395;-69
2023/11/07 04:54:38;;;;;;;3.72;1.05;;;11.30;99.90;;;;;;5006039;28;20397;-70
2023/11/07 04:57:08;;;;;;;7.28;1.60;;;11.30;99.90;;;;;;5008920;28;20653;-69
2023/11/07 04:59:34;;;;;;;9.07;1.20;;;11.30;99.90;;;;;;5006030;28;20040;-70
2023/11/07 05:02:00;;;;;;;3.05;1.30;;;11.40;99.90;;;;;;5005441;28;20022;-69
2023/11/07 05:04:28;;;;;;;9.73;1.33;;;11.40;99.90;;;;;;5003405;28;21163;-69
2023/11/07 05:06:54;;;;;;;3.10;1.00;;;11.30;99.90;;;;;;5001228;28;20487;-69
2023/11/07 05:09:22;;;;;;;7.30;1.40;;;11.40;99.90;;;;;;5006238;28;20041;-69
2023/11/07 05:11:48;;;;;;;4.15;1.08;;;11.40;99.90;;;;;;5009202;28;20030;-69
2023/11/07 05:14:18;;;;;;;1.83;0.90;;;11.40;99.90;;;;;;5006732;28;20121;-69
2023/11/07 05:16:44;;;;;;;6.00;1.50;;;11.40;99.90;;;;;;5005189;28;20447;-69
2023/11/07 05:19:10;;;;;;;3.83;1.27;;;11.50;99.90;;;;;;5010027;28;20022;-69
2023/11/07 05:21:36;;;;;;;3.97;0.63;;;11.50;99.90;;;;;;5004544;28;20022;-70
2023/11/07 05:24:05;;;;;;;2.17;0.77;;;11.50;99.90;;;;;;5002253;28;20037;-69
2023/11/07 05:26:31;;;;;;;3.60;0.70;;;11.40;99.90;;;;;;5008295;28;20049;-69
2023/11/07 05:28:57;;;;;;;4.93;0.90;;;11.60;99.90;;;;;;5008688;28;20044;-69
2023/11/07 05:31:26;;;;;;;4.90;1.13;;;11.50;99.90;;;;;;5007987;28;20042;-70
2023/11/07 05:33:51;;;;;;;4.20;0.90;;;11.50;99.90;;;;;;5008351;28;20492;-69
2023/11/07 05:36:17;;;;;;;3.78;0.93;;;11.50;99.90;;;;;;5007512;28;20044;-69
2023/11/07 05:38:47;;;;;;;5.30;1.02;;;11.50;99.90;;;;;;5005550;28;20423;-69
2023/11/07 05:41:14;;;;;;;1.45;0.50;;;11.40;99.90;;;;;;5007384;28;20040;-69
2023/11/07 05:43:39;;;;;;;6.13;1.02;;;11.50;99.90;;;;;;5004100;28;20223;-69
2023/11/07 05:46:05;;;;;;;3.30;0.63;;;11.40;99.90;;;;;;5003632;28;20105;-69
2023/11/07 05:48:31;;;;;;;2.72;0.88;;;11.40;99.90;;;;;;5011467;28;20397;-69
2023/11/07 05:50:58;;;;;;;4.95;1.17;;;11.40;99.90;;;;;;5004478;28;20042;-70
2023/11/07 05:53:24;;;;;;;4.97;0.77;;;11.50;99.90;;;;;;5009836;28;20076;-69
2023/11/07 05:55:49;;;;;;;3.50;0.75;;;11.50;99.90;;;;;;5008071;28;20025;-69
2023/11/07 05:58:18;;;;;;;3.47;0.77;;;11.50;99.90;;;;;;5012738;28;20030;-69
2023/11/07 06:00:46;;;;;;;5.25;0.85;;;11.50;99.90;;;;;;5003056;28;20026;-69
2023/11/07 06:03:13;;;;;;;5.20;1.02;;;11.40;99.90;;;;;;5008424;28;20030;-69
2023/11/07 06:05:41;;;;;;;5.82;0.80;;;11.40;99.90;;;;;;5010323;28;20120;-69
2023/11/07 06:08:06;;;;;;;1.38;0.73;;;11.50;99.90;;;;;;5004988;28;20113;-69
2023/11/07 06:10:32;;;;;;;2.63;0.98;;;11.50;99.90;;;;;;5005929;28;20120;-70
2023/11/07 06:13:03;;;;;;;2.90;0.95;;;11.50;99.90;;;;;;5006539;28;20042;-69
2023/11/07 06:15:28;;;;;;;2.80;0.90;;;11.50;99.90;;;;;;5006953;28;20032;-69
2023/11/07 06:17:54;;;;;;;5.28;1.13;;;11.50;99.90;;;;;;5006722;28;20047;-70
2023/11/07 06:20:21;;;;;;;5.47;0.93;;;11.50;99.90;;;;;;5009167;28;20032;-69
2023/11/07 06:22:47;;;;;;;2.78;0.65;;;11.60;99.90;;;;;;5009820;28;20529;-69
2023/11/07 06:25:13;;;;;;;3.70;0.80;;;11.60;99.90;;;;;;5005777;28;20038;-69
2023/11/07 06:27:39;;;;;;;2.53;0.70;;;11.60;99.90;;;;;;5011650;28;20042;-69
2023/11/07 06:30:06;;;;;;;8.00;1.00;;;11.60;99.90;;;;;;5009858;28;20026;-69
2023/11/07 06:32:32;;;;;;;3.95;1.10;;;11.60;99.90;;;;;;5011847;28;20446;-69
2023/11/07 06:34:57;;;;;;;2.92;0.60;;;11.60;99.90;;;;;;5012913;28;20104;-72
2023/11/07 06:37:23;;;;;;;3.15;0.65;;;11.70;99.90;;;;;;5012031;28;20061;-69
2023/11/07 06:39:51;;;;;;;4.03;0.80;;;11.70;99.90;;;;;;5008644;28;20022;-69
2023/11/07 06:42:19;;;;;;;5.38;1.10;;;11.70;99.90;;;;;;5013015;28;20030;-69
2023/11/07 06:44:44;;;;;;;6.55;0.90;;;11.60;99.90;;;;;;5007666;28;20025;-69
2023/11/07 06:47:12;;;;;;;3.30;0.63;;;11.70;99.90;;;;;;5005055;28;20026;-69
2023/11/07 06:49:38;;;;;;;1.83;0.77;;;11.80;99.90;;;;;;5006485;28;20022;-70
2023/11/07 06:52:04;;;;;;;1.58;0.75;;;11.80;99.90;;;;;;5008844;28;20097;-70
2023/11/07 06:54:29;;;;;;;5.63;1.35;;;11.80;99.90;;;;;;5007978;28;20191;-69
2023/11/07 06:56:55;;;;;;;4.78;0.77;;;11.80;99.90;;;;;;5004476;28;20112;-69
2023/11/07 06:59:23;;;;;;;3.78;0.88;;;11.90;99.90;;;;;;5005218;28;20029;-69
2023/11/07 07:01:48;;;;;;;4.00;0.93;;;11.80;99.90;;;;;;5007796;28;20030;-69
2023/11/07 07:04:14;;;;;;;4.85;0.90;;;11.80;99.90;;;;;;5009717;28;20080;-69
2023/11/07 07:06:40;;;;;;;2.30;0.68;;;11.90;99.90;;;;;;5004922;28;20037;-69
2023/11/07 07:09:10;;;;;;;8.32;0.90;;;11.80;99.90;;;;;;5008535;28;20035;-69
2023/11/07 07:11:38;;;;;;;5.50;0.73;;;12.00;99.90;;;;;;5006886;28;20084;-69
2023/11/07 07:14:03;;;;;;;3.97;1.17;;;12.00;99.90;;;;;;5008360;28;20041;-69
2023/11/07 07:16:32;;;;;;;5.07;1.00;;;11.80;99.90;;;;;;5012014;28;20029;-69
2023/11/07 07:19:06;;;;;;;2.85;0.95;;;11.90;99.90;;;;;;5006896;28;20088;-69
2023/11/07 07:21:34;;;;;;;5.18;0.95;;;11.90;99.90;;;;;;5013500;28;20554;-69
2023/11/07 07:24:08;;;;;;;5.10;0.90;;;11.90;99.90;;;;;;5005901;28;20120;-69
2023/11/07 07:26:36;;;;;;;3.75;0.70;;;11.80;99.90;;;;;;5008015;28;20030;-69
2023/11/07 07:29:03;;;;;;;4.10;0.98;;;11.80;99.90;;;;;;5006841;28;20113;-70
2023/11/07 07:31:34;;;;;;;3.43;0.67;;;11.80;99.90;;;;;;5004272;28;20040;-70
2023/11/07 07:33:59;;;;;;;4.07;0.82;;;11.80;99.90;;;;;;5007263;28;20279;-69
2023/11/07 07:36:25;;;;;;;1.05;0.43;;;11.90;99.90;;;;;;5002529;28;20088;-69
2023/11/07 07:38:52;;;;;;;3.95;1.05;;;11.80;99.90;;;;;;5002575;28;20029;-70
2023/11/07 07:41:18;;;;;;;2.65;0.85;;;11.80;99.90;;;;;;4999663;28;20057;-70
2023/11/07 07:43:46;;;;;;;1.75;0.50;;;11.80;99.90;;;;;;5004658;28;20793;-70
2023/11/07 07:46:12;;;;;;;3.40;1.35;;;11.90;99.90;;;;;;5001776;28;20030;-70
2023/11/07 07:48:38;;;;;;;3.97;0.75;;;11.90;99.90;;;;;;4993599;28;20271;-70
2023/11/07 07:51:06;;;;;;;3.05;0.50;;;11.90;99.90;;;;;;5000900;28;20033;-70
2023/11/07 07:53:34;;;;;;;2.75;0.60;;;11.90;99.90;;;;;;5003719;28;20083;-71
2023/11/07 07:56:00;;;;;;;3.42;0.57;;;12.00;99.90;;;;;;5006701;28;20387;-70
2023/11/07 07:58:26;;;;;;;2.03;0.60;;;12.00;99.90;;;;;;4995460;28;20384;-70
2023/11/07 08:00:54;;;;;;;0.73;0.47;;;11.90;99.90;;;;;;5004571;28;20026;-70
2023/11/07 08:03:22;;;;;;;7.47;0.60;;;12.00;99.90;;;;;;5006042;28;20096;-70
2023/11/07 08:05:48;;;;;;;;;;;12.00;99.90;;;;;;5007682;28;20412;-70
2023/11/07 08:08:16;;;;;;;5.20;0.60;;;12.00;99.90;;;;;;5007830;28;19910;-70
2023/11/07 08:10:47;;;;;;;1.77;0.40;;;12.00;99.90;;;;;;5023039;28;20044;-70
2023/11/07 08:13:14;;;;;;;1.58;0.43;;;12.20;99.90;;;;;;5006219;28;20349;-69
2023/11/07 08:15:41;;;;;;;4.03;0.98;;;12.00;99.90;;;;;;5008274;28;20121;-69
2023/11/07 08:18:10;;;;;;;1.77;0.45;;;12.00;99.90;;;;;;5004192;28;20034;-70
2023/11/07 08:20:39;;;;;;;3.00;0.47;;;12.00;99.90;;;;;;5007746;28;20092;-70
2023/11/07 08:23:04;;;;;;;1.35;0.45;;;12.10;99.90;;;;;;5005266;28;20406;-70
2023/11/07 08:25:30;;;;;;;0.68;0.32;;;12.20;99.90;;;;;;5009280;28;20033;-69
2023/11/07 08:27:58;;;;;;;4.15;0.88;;;12.00;99.90;;;;;;5005618;28;20480;-70
2023/11/07 08:30:24;;;;;;;4.07;0.80;;;12.10;99.90;;;;;;5006629;28;20022;-70
2023/11/07 08:32:51;;;;;;;1.48;0.75;;;12.10;99.90;;;;;;5012165;28;20488;-70
2023/11/07 08:35:20;;;;;;;4.70;1.60;;;12.10;99.90;;;;;;5006950;28;20064;-71
2023/11/07 08:37:47;;;;;;;1.65;0.50;;;12.10;99.90;;;;;;5008878;28;20064;-70
2023/11/07 08:40:17;;;;;;;1.38;0.65;;;12.10;99.90;;;;;;5006460;28;20037;-70
2023/11/07 08:42:44;;;;;;;1.73;0.60;;;12.10;99.90;;;;;;5012857;28;20492;-70
2023/11/07 08:45:15;;;;;;;0.30;0.30;;;12.20;99.90;;;;;;5009103;28;20109;-69
2023/11/07 08:47:45;;;;;;;2.13;0.80;;;12.20;99.90;;;;;;5002546;28;20363;-70
2023/11/07 08:50:12;;;;;;;1.65;0.65;;;12.20;99.90;;;;;;5005445;28;20037;-69
2023/11/07 08:52:39;;;;;;;3.38;0.73;;;12.20;99.90;;;;;;5006597;28;20037;-70
2023/11/07 08:55:05;;;;;;;2.45;0.60;;;12.30;99.90;;;;;;5005154;28;20468;-70
2023/11/07 08:57:36;;;;;;;5.85;0.80;;;12.30;99.90;;;;;;5007719;28;20038;-69
2023/11/07 09:00:07;;;;;;;7.05;0.70;;;12.40;99.90;;;;;;5004623;28;20079;-70
2023/11/07 09:02:33;;;;;;;5.07;0.70;;;12.30;99.90;;;;;;5005955;28;20486;-70
2023/11/07 09:04:59;;;;;;;5.30;0.90;;;12.30;99.90;;;;;;5007809;28;20029;-70
2023/11/07 09:07:25;;;;;;;2.42;0.65;;;12.30;99.90;;;;;;5007701;28;20029;-70
2023/11/07 09:09:51;;;;;;;4.80;0.73;;;12.30;99.90;;;;;;5005427;28;20173;-69
2023/11/07 09:12:17;;;;;;;0.85;0.50;;;12.30;99.90;;;;;;5007964;28;20605;-70
2023/11/07 09:14:43;;;;;;;2.00;0.57;;;12.40;99.90;;;;;;5007752;28;20041;-69
2023/11/07 09:17:08;;;;;;;0.60;0.50;;;12.40;99.90;;;;;;5005186;28;20041;-70
2023/11/07 09:19:39;;;;;;;2.83;0.88;;;12.40;99.90;;;;;;5007486;28;20033;-70
2023/11/07 09:22:04;;;;;;;2.28;0.68;;;12.40;99.90;;;;;;5007020;28;20026;-69
2023/11/07 09:24:30;;;;;;;2.17;0.70;;;12.40;99.90;;;;;;5006147;28;20396;-70
2023/11/07 09:26:58;;;;;;;2.25;0.77;;;12.40;99.90;;;;;;5009010;28;20030;-70
2023/11/07 09:29:28;;;;;;;3.13;0.60;;;12.40;99.90;;;;;;5007643;28;20546;-69
2023/11/07 09:31:53;;;;;;;2.33;0.50;;;12.40;99.90;;;;;;5005449;28;20049;-69
2023/11/07 09:34:20;;;;;;;1.15;0.50;;;12.50;99.90;;;;;;5007437;28;20026;-70
2023/11/07 09:36:47;;;;;;;0.35;0.30;;;12.60;99.90;;;;;;5005772;28;20486;-70
2023/11/07 09:39:13;;;;;;;1.30;0.63;;;12.60;99.90;;;;;;5005693;28;20084;-70
2023/11/07 09:41:42;;;;;;;3.13;0.80;;;12.60;99.90;;;;;;5009236;28;20030;-69
2023/11/07 09:44:11;;;;;;;0.90;0.45;;;12.70;99.90;;;;;;5012068;28;20044;-70
2023/11/07 09:46:41;;;;;;;1.67;0.50;;;12.70;99.90;;;;;;5004956;28;20522;-70
2023/11/07 09:49:09;;;;;;;3.20;0.80;;;12.70;99.90;;;;;;4998763;28;20034;-70
2023/11/07 09:51:39;;;;;;;3.88;0.65;;;12.80;99.90;;;;;;5001649;28;20080;-70
2023/11/07 09:54:07;;;;;;;2.85;0.60;;;12.70;99.90;;;;;;5005023;28;20040;-70
2023/11/07 09:56:40;;;;;;;1.92;0.93;;;12.70;99.90;;;;;;5005560;28;20033;-70
2023/11/07 09:59:28;;;;;;;1.67;0.77;;;12.70;99.90;;;;;;5004200;28;20022;-70
2023/11/07 10:01:56;;;;;;;5.57;0.43;;;12.80;99.90;;;;;;5010348;28;20025;-70
2023/11/07 10:04:25;;;;;;;1.30;0.60;;;12.80;99.90;;;;;;5007460;28;20096;-70
2023/11/07 10:06:55;;;;;;;1.30;0.60;;;12.80;99.90;;;;;;5013095;28;20022;-70
2023/11/07 10:09:21;;;;;;;1.48;0.50;;;12.80;99.90;;;;;;5010359;28;20527;-71
2023/11/07 10:11:53;;;;;;;2.40;0.60;;;12.70;99.90;;;;;;5010153;28;20025;-70
2023/11/07 10:14:22;;;;;;;1.33;0.50;;;12.70;99.90;;;;;;5010114;28;20048;-70
2023/11/07 10:16:58;;;;;;;1.83;0.35;;;12.90;99.90;;;;;;5009507;28;20036;-70
2023/11/07 10:19:25;;;;;;;2.70;0.57;;;12.90;99.90;;;;;;5013042;28;20855;-70
2023/11/07 10:21:51;;;;;;;4.03;0.60;;;13.10;99.90;;;;;;5011875;28;20026;-71
2023/11/07 10:24:21;;;;;;;1.75;0.50;;;13.20;99.90;;;;;;5009277;28;20113;-70
2023/11/07 10:26:58;;;;;;;2.08;0.60;;;13.20;99.90;;;;;;5006669;28;20023;-70
2023/11/07 10:29:30;;;;;;;4.82;0.70;;;13.30;99.90;;;;;;5013020;28;20049;-69
2023/11/07 10:32:08;;;;;;;4.15;0.57;;;13.30;99.90;;;;;;5011312;28;20046;-70
2023/11/07 10:34:35;;;;;;;2.90;0.80;;;13.30;99.90;;;;;;5010864;28;20073;-70
2023/11/07 10:37:05;;;;;;;3.42;0.60;;;13.30;99.90;;;;;;5005989;28;20025;-70
2023/11/07 10:39:35;;;;;;;7.57;0.60;;;13.30;99.90;;;;;;5007434;28;20121;-70
2023/11/07 10:42:18;;;;;;;0.77;0.50;;;13.30;99.90;;;;;;5010408;28;20054;-69
2023/11/07 10:44:48;;;;;;;1.63;0.55;;;13.20;99.90;;;;;;5012101;28;20084;-70
2023/11/07 10:47:16;;;;;;;1.55;0.50;;;13.20;99.90;;;;;;5008178;28;20029;-70
2023/11/07 10:49:51;;;;;;;2.17;0.55;;;13.30;99.90;;;;;;5008447;28;20567;-70
2023/11/07 10:52:18;;;;;;;5.25;1.10;;;13.20;99.90;;;;;;5008393;28;20045;-70
2023/11/07 10:54:43;;;;;;;0.98;0.60;;;13.20;99.90;;;;;;5007324;28;20024;-70
2023/11/07 10:57:15;;;;;;;1.83;0.47;;;13.20;99.90;;;;;;5007763;28;20037;-70
2023/11/07 10:59:45;;;;;;;3.38;0.60;;;13.20;99.90;;;;;;5011757;28;20025;-71
2023/11/07 11:02:11;;;;;;;3.45;0.70;;;13.30;99.90;;;;;;5010622;28;20026;-70
2023/11/07 11:04:38;;;;;;;1.02;0.60;;;13.20;99.90;;;;;;5010434;28;20639;-70
2023/11/07 11:07:06;;;;;;;0.55;0.47;;;13.20;99.90;;;;;;5007692;28;20475;-71
2023/11/07 11:09:36;;;;;;;1.45;0.60;;;13.20;99.90;;;;;;5012147;28;20037;-70
2023/11/07 11:12:07;;;;;;;1.92;0.90;;;13.20;99.90;;;;;;5008096;28;20112;-70
2023/11/07 11:14:35;;;;;;;1.83;0.82;;;13.10;99.90;;;;;;5006354;28;20498;-70
2023/11/07 11:17:30;;;;;;;1.98;1.13;;;13.10;99.90;;;;;;5004506;28;20026;-70
2023/11/07 11:20:03;;;;;;;3.35;0.70;;;13.10;99.90;;;;;;5007089;28;20431;-70
2023/11/07 11:22:43;;;;;;;1.08;0.60;;;13.20;99.90;;;;;;5006525;28;20105;-70
2023/11/07 11:25:36;;;;;;;6.03;1.23;;;13.30;99.90;;;;;;5022034;28;20030;-70
2023/11/07 11:28:07;;;;;;;1.80;0.50;;;13.30;99.90;;;;;;5008557;28;20054;-70
2023/11/07 11:30:38;;;;;;;3.67;0.80;;;13.40;99.90;;;;;;5009205;28;20526;-69
2023/11/07 11:33:13;;;;;;;3.65;0.65;;;13.30;99.90;;;;;;5006563;28;20037;-69
2023/11/07 11:35:40;;;;;;;3.10;0.90;;;13.40;99.90;;;;;;5005645;28;20026;-67
2023/11/07 11:40:50;;;;;;;3.03;0.85;;;13.40;99.90;;;;;;5006094;28;20026;-67
2023/11/07 11:43:27;;;;;;;2.05;0.95;;;13.40;99.90;;;;;;5007533;28;20030;-68
2023/11/07 11:46:02;;;;;;;2.23;0.53;;;13.40;99.90;;;;;;5008112;28;20490;-67
2023/11/07 11:48:49;;;;;;;1.55;0.68;;;13.30;99.90;;;;;;4999626;28;20034;-67
2023/11/07 11:51:39;;;;;;;0.65;0.50;;;13.30;99.90;;;;;;5008280;28;20026;-68
2023/11/07 11:54:12;;;;;;;1.80;1.10;;;13.30;99.90;;;;;;5007001;28;20068;-67
2023/11/07 11:56:55;;;;;;;1.83;0.60;;;13.30;99.90;;;;;;5007523;28;20061;-67
2023/11/07 11:59:28;;;;;;;2.00;0.80;;;13.30;99.90;;;;;;5006264;28;20038;-67
2023/11/07 12:01:59;;;;;;;1.90;0.57;;;13.30;99.90;;;;;;5007695;28;20146;-67
2023/11/07 12:04:29;;;;;;;2.58;0.70;;;13.30;99.90;;;;;;5004781;28;20088;-67
2023/11/07 12:07:09;;;;;;;2.47;1.38;;;13.30;99.90;;;;;;5003414;28;20108;-68
2023/11/07 12:09:37;;;;;;;4.28;0.90;;;13.30;99.90;;;;;;5006224;28;20034;-68
2023/11/07 12:12:03;;;;;;;1.13;0.73;;;13.40;99.90;;;;;;5006770;28;20030;-68
2023/11/07 12:14:30;;;;;;;6.60;1.17;;;13.40;99.90;;;;;;5008665;28;20041;-67
2023/11/07 12:16:59;;;;;;;2.35;0.82;;;13.40;99.90;;;;;;5009741;28;20507;-67
2023/11/07 12:19:25;;;;;;;2.55;0.77;;;13.40;99.90;;;;;;5005062;28;20087;-67
2023/11/07 12:21:55;;;;;;;2.13;0.60;;;13.40;99.90;;;;;;5006975;28;20030;-67
2023/11/07 12:24:24;;;;;;;1.55;0.63;;;13.40;99.90;;;;;;5008478;28;20034;-67
2023/11/07 12:26:53;;;;;;;0.52;0.35;;;13.50;99.90;;;;;;5007499;28;20029;-67
2023/11/07 12:29:31;;;;;;;;;;;13.40;99.90;;;;;;5020325;28;20116;-67
2023/11/07 12:31:57;;;;;;;1.10;0.50;;;13.40;99.90;;;;;;5008075;28;19921;-67
2023/11/07 12:34:33;;;;;;;5.30;0.75;;;13.50;99.90;;;;;;5007837;28;20061;-68
2023/11/07 12:37:18;;;;;;;3.03;1.00;;;13.50;99.90;;;;;;5004749;28;20026;-67
2023/11/07 12:39:45;;;;;;;3.30;0.70;;;13.60;99.90;;;;;;5007870;28;20488;-67
2023/11/07 12:42:13;;;;;;;2.03;0.50;;;13.70;99.90;;;;;;5007815;28;20080;-67
2023/11/07 12:44:41;;;;;;;2.03;0.50;;;13.70;99.90;;;;;;5005450;28;20526;-68
2023/11/07 12:47:08;;;;;;;1.35;0.60;;;13.80;99.90;;;;;;5005388;28;20030;-67
2023/11/07 12:49:43;;;;;;;1.40;0.50;;;13.90;99.90;;;;;;5006672;28;20034;-67
2023/11/07 12:52:13;;;;;;;1.33;0.45;;;13.80;99.90;;;;;;5007397;28;20048;-67
2023/11/07 12:54:39;;;;;;;1.15;0.40;;;13.80;99.90;;;;;;5003805;28;20065;-67
2023/11/07 12:57:05;;;;;;;5.22;0.73;;;13.90;99.90;;;;;;5000144;28;20136;-67